Main page
METAR-TAF:

METAR-TAF

Airports :

Sibiu International Airport

Sibiu, Romania

latitude: 45-48N, longitude: 024-09E, elevation: 443 m

Current weather observation

The report was made 25 minutes ago, at 20:30 UTC
Wind 3 kt from the West
Temperature 0°C
Humidity 86%
Pressure 1027 hPa
Visibility 10 km or more
no clouds below 1500 m and no cumulonimbus

METAR: LRSB 282030Z 27003KT CAVOK M00/M02 Q1027

Time: 23:55 (20:55 UTC)

Forecast

The report was made 3 hours and 55 minutes ago, at 17:00 UTC
Forecast valid from 28 at 18 UTC to 29 at 18 UTC
Wind 4 kt from variable directions
Visibility 10 km or more
no clouds below 1500 m and no cumulonimbus
Probability 30% :
Temporary
from 29 at 01 UTC to 29 at 05 UTC
Visibility: 3000 m
mist

TAF: LRSB 281700Z 2818/2918 VRB04KT CAVOK PROB30 TEMPO 2901/2905 3000 BR

Weather observations and forecasts of more than 4000 airports (METAR and TAF reports).

The available stations are represented by yellow and red dots on the map.

Hover mouse over dot to see the name of the station.

Then click to see weather observations and forecasts.

To change the map : click on the green buttons with a black cross to zoom in, on the green button with a dash to zoom out, or on the green arrows for adjacent maps.


METAR-TAF: